<?xml version="1.0" encoding="UTF-8"?>
<gpx version="1.1" creator="2bulu-scraper" xmlns="http://www.topografix.com/GPX/1/1">
  <metadata><name>泸州纳溪区</name><desc>source: 2bulu.com trackId=80443889; exported 2026-09-01T14:56:09.536Z</desc>
    <bounds minlat="28.7304342" minlon="105.5666662" maxlat="28.7436078" maxlon="105.5820269"/>
    <link href="https://www.2bulu.com/track/t-9nnHSBRtp3fp%252FR2KBg5Tzw%253D%253D.htm"><text>2bulu 源页面</text></link>
  </metadata>
  <wpt lat="28.7405964" lon="105.5668755"><ele>649</ele><name>起点，有停车，有卫生间
        </name></wpt>
  <wpt lat="28.7412381" lon="105.5668191"><ele>656</ele><name>孔雀开屏
        </name></wpt>
  <wpt lat="28.7412305" lon="105.5669236"><ele>655</ele><name>左手边
        </name></wpt>
  <wpt lat="28.741877" lon="105.5679767"><ele>671</ele><name>直行
        </name></wpt>
  <wpt lat="28.7436078" lon="105.5712968"><ele>698</ele><name>
        </name></wpt>
  <wpt lat="28.7428126" lon="105.5732165"><ele>687</ele><name>花花
        </name></wpt>
  <wpt lat="28.7408828" lon="105.5738738"><ele>659</ele><name>竹林
        </name></wpt>
  <wpt lat="28.7399988" lon="105.5737018"><ele>644</ele><name>直行
        </name></wpt>
  <wpt lat="28.7400001" lon="105.5737287"><ele>642</ele><name>错了，顺着左手边走
        </name></wpt>
  <wpt lat="28.7390701" lon="105.5765501"><ele>633</ele><name>顺着左手边走
        </name></wpt>
  <wpt lat="28.7395776" lon="105.5769876"><ele>635</ele><name>村庄田园风光
        </name></wpt>
  <wpt lat="28.7403033" lon="105.5781683"><ele>644</ele><name>上坡
        </name></wpt>
  <wpt lat="28.741075" lon="105.5808968"><ele>655</ele><name>远山风景
        </name></wpt>
  <wpt lat="28.7392689" lon="105.5815511"><ele>685</ele><name>新修水泥路
        </name></wpt>
  <wpt lat="28.7388106" lon="105.5806712"><ele>683</ele><name>
        </name></wpt>
  <wpt lat="28.7388803" lon="105.5806817"><ele>690</ele><name>留意，右手边向下
        </name></wpt>
  <wpt lat="28.7367271" lon="105.5777034"><ele>670</ele><name>村庄
        </name></wpt>
  <wpt lat="28.7369991" lon="105.5760245"><ele>659</ele><name>左转
        </name></wpt>
  <wpt lat="28.7355153" lon="105.5757064"><ele>657</ele><name>樱桃
        </name></wpt>
  <wpt lat="28.7311024" lon="105.5734048"><ele>579</ele><name>右手边
        </name></wpt>
  <wpt lat="28.7306067" lon="105.5733062"><ele>572</ele><name>
        </name></wpt>
  <wpt lat="28.7325128" lon="105.5724983"><ele>548</ele><name>瀑布
        </name></wpt>
  <wpt lat="28.7328473" lon="105.5718009"><ele>554</ele><name>木耳
        </name></wpt>
  <wpt lat="28.7346235" lon="105.5720251"><ele>561</ele><name>瀑布
        </name></wpt>
  <wpt lat="28.7396867" lon="105.5698259"><ele>634</ele><name>小瀑布
        </name></wpt>
  <wpt lat="28.7400832" lon="105.5675469"><ele>622</ele><name>长坡
        </name></wpt>
  <trk><name>泸州纳溪区</name>
      <trkseg>
        <trkpt lat="28.7405964" lon="105.5668755"><ele>649</ele><time>2026-03-14T18:19:42.000Z</time></trkpt>
        <trkpt lat="28.7406689" lon="105.566817"><ele>649</ele><time>2026-03-14T18:20:24.000Z</time></trkpt>
        <trkpt lat="28.7407599" lon="105.5667539"><ele>649.77</ele><time>2026-03-14T18:20:38.000Z</time></trkpt>
        <trkpt lat="28.7408542" lon="105.5667"><ele>650.23</ele><time>2026-03-14T18:20:46.000Z</time></trkpt>
        <trkpt lat="28.740953" lon="105.5666662"><ele>650.49</ele><time>2026-03-14T18:20:54.000Z</time></trkpt>
        <trkpt lat="28.7410578" lon="105.5666843"><ele>651.02</ele><time>2026-03-14T18:21:04.000Z</time></trkpt>
        <trkpt lat="28.7411554" lon="105.5667391"><ele>651.88</ele><time>2026-03-14T18:21:14.000Z</time></trkpt>
        <trkpt lat="28.7411554" lon="105.5667391"><ele>651.88</ele><time>2026-03-14T18:21:26.000Z</time></trkpt>
      </trkseg>
      <trkseg>
        <trkpt lat="28.7412305" lon="105.5669236"><ele>653.01</ele><time>2026-03-14T18:22:01.000Z</time></trkpt>
        <trkpt lat="28.7412305" lon="105.5669236"><ele>653.01</ele><time>2026-03-14T18:22:27.000Z</time></trkpt>
        <trkpt lat="28.741205" lon="105.5670087"><ele>653.74</ele><time>2026-03-14T18:22:53.000Z</time></trkpt>
        <trkpt lat="28.7412066" lon="105.5671104"><ele>655.45</ele><time>2026-03-14T18:23:11.000Z</time></trkpt>
        <trkpt lat="28.7412567" lon="105.5672087"><ele>657.4</ele><time>2026-03-14T18:23:31.000Z</time></trkpt>
        <trkpt lat="28.7413036" lon="105.5673039"><ele>660.02</ele><time>2026-03-14T18:23:45.000Z</time></trkpt>
        <trkpt lat="28.7413542" lon="105.5673972"><ele>662.37</ele><time>2026-03-14T18:23:58.000Z</time></trkpt>
        <trkpt lat="28.7414118" lon="105.5674827"><ele>665.17</ele><time>2026-03-14T18:24:12.000Z</time></trkpt>
        <trkpt lat="28.7414783" lon="105.5675566"><ele>667.69</ele><time>2026-03-14T18:24:18.000Z</time></trkpt>
        <trkpt lat="28.7415639" lon="105.5676089"><ele>669.46</ele><time>2026-03-14T18:24:30.000Z</time></trkpt>
        <trkpt lat="28.7416565" lon="105.5676416"><ele>671.87</ele><time>2026-03-14T18:24:42.000Z</time></trkpt>
        <trkpt lat="28.7417398" lon="105.567705"><ele>672.33</ele><time>2026-03-14T18:25:14.000Z</time></trkpt>
        <trkpt lat="28.7418187" lon="105.5677919"><ele>672.56</ele><time>2026-03-14T18:25:24.000Z</time></trkpt>
        <trkpt lat="28.7418587" lon="105.5679077"><ele>671.49</ele><time>2026-03-14T18:25:32.000Z</time></trkpt>
        <trkpt lat="28.741877" lon="105.5679767"><ele>670.75</ele><time>2026-03-14T18:25:42.000Z</time></trkpt>
        <trkpt lat="28.7419195" lon="105.5680639"><ele>670.72</ele><time>2026-03-14T18:26:02.000Z</time></trkpt>
        <trkpt lat="28.7419693" lon="105.5681576"><ele>671.78</ele><time>2026-03-14T18:26:10.000Z</time></trkpt>
        <trkpt lat="28.7420198" lon="105.5682595"><ele>673.21</ele><time>2026-03-14T18:26:18.000Z</time></trkpt>
        <trkpt lat="28.7420672" lon="105.5683595"><ele>673.45</ele><time>2026-03-14T18:26:28.000Z</time></trkpt>
        <trkpt lat="28.7421206" lon="105.5684704"><ele>675.09</ele><time>2026-03-14T18:26:41.000Z</time></trkpt>
        <trkpt lat="28.7421577" lon="105.5685871"><ele>680.03</ele><time>2026-03-14T18:26:51.000Z</time></trkpt>
        <trkpt lat="28.7421777" lon="105.5687066"><ele>684.47</ele><time>2026-03-14T18:26:59.000Z</time></trkpt>
        <trkpt lat="28.7421863" lon="105.5687703"><ele>685.6</ele><time>2026-03-14T18:27:03.000Z</time></trkpt>
        <trkpt lat="28.7422027" lon="105.5688702"><ele>688.77</ele><time>2026-03-14T18:27:13.000Z</time></trkpt>
        <trkpt lat="28.7422313" lon="105.5689845"><ele>690.69</ele><time>2026-03-14T18:27:21.000Z</time></trkpt>
        <trkpt lat="28.7422664" lon="105.5691051"><ele>692.24</ele><time>2026-03-14T18:27:31.000Z</time></trkpt>
        <trkpt lat="28.7422888" lon="105.5692147"><ele>691.68</ele><time>2026-03-14T18:27:43.000Z</time></trkpt>
        <trkpt lat="28.7422877" lon="105.5693343"><ele>693.86</ele><time>2026-03-14T18:27:55.000Z</time></trkpt>
        <trkpt lat="28.7422978" lon="105.5694434"><ele>694.09</ele><time>2026-03-14T18:28:03.000Z</time></trkpt>
        <trkpt lat="28.7423072" lon="105.5694925"><ele>693.2</ele><time>2026-03-14T18:28:05.000Z</time></trkpt>
        <trkpt lat="28.742342" lon="105.569587"><ele>692.95</ele><time>2026-03-14T18:28:13.000Z</time></trkpt>
        <trkpt lat="28.7423567" lon="105.5696989"><ele>691.72</ele><time>2026-03-14T18:28:23.000Z</time></trkpt>
        <trkpt lat="28.742354" lon="105.5698173"><ele>691.8</ele><time>2026-03-14T18:28:33.000Z</time></trkpt>
        <trkpt lat="28.7423497" lon="105.5699334"><ele>691.69</ele><time>2026-03-14T18:28:37.000Z</time></trkpt>
        <trkpt lat="28.742351" lon="105.570045"><ele>692.82</ele><time>2026-03-14T18:28:43.000Z</time></trkpt>
        <trkpt lat="28.7423747" lon="105.5701557"><ele>693.11</ele><time>2026-03-14T18:28:47.000Z</time></trkpt>
        <trkpt lat="28.7424049" lon="105.5702118"><ele>694</ele><time>2026-03-14T18:28:55.000Z</time></trkpt>
        <trkpt lat="28.7424749" lon="105.5702726"><ele>692.76</ele><time>2026-03-14T18:29:47.000Z</time></trkpt>
        <trkpt lat="28.7425521" lon="105.5703357"><ele>692.54</ele><time>2026-03-14T18:29:55.000Z</time></trkpt>
        <trkpt lat="28.7426094" lon="105.5704329"><ele>692.87</ele><time>2026-03-14T18:30:05.000Z</time></trkpt>
        <trkpt lat="28.7426995" lon="105.5704823"><ele>692.23</ele><time>2026-03-14T18:30:15.000Z</time></trkpt>
        <trkpt lat="28.7427848" lon="105.5705287"><ele>691.56</ele><time>2026-03-14T18:30:27.000Z</time></trkpt>
        <trkpt lat="28.7428802" lon="105.5705604"><ele>691.2</ele><time>2026-03-14T18:30:39.000Z</time></trkpt>
        <trkpt lat="28.7429557" lon="105.5706219"><ele>690.94</ele><time>2026-03-14T18:31:03.000Z</time></trkpt>
        <trkpt lat="28.7429787" lon="105.5707253"><ele>691.89</ele><time>2026-03-14T18:31:11.000Z</time></trkpt>
        <trkpt lat="28.743018" lon="105.5708341"><ele>692.77</ele><time>2026-03-14T18:31:21.000Z</time></trkpt>
        <trkpt lat="28.7430681" lon="105.5709301"><ele>693.22</ele><time>2026-03-14T18:31:31.000Z</time></trkpt>
        <trkpt lat="28.7431164" lon="105.5710233"><ele>694</ele><time>2026-03-14T18:31:39.000Z</time></trkpt>
        <trkpt lat="28.7431971" lon="105.5711"><ele>694.45</ele><time>2026-03-14T18:31:47.000Z</time></trkpt>
        <trkpt lat="28.7432902" lon="105.5711549"><ele>696.66</ele><time>2026-03-14T18:31:59.000Z</time></trkpt>
        <trkpt lat="28.7433951" lon="105.5711613"><ele>698.5</ele><time>2026-03-14T18:32:09.000Z</time></trkpt>
        <trkpt lat="28.7434955" lon="105.5711561"><ele>699.81</ele><time>2026-03-14T18:32:17.000Z</time></trkpt>
        <trkpt lat="28.7435847" lon="105.5712025"><ele>700.54</ele><time>2026-03-14T18:32:25.000Z</time></trkpt>
        <trkpt lat="28.7436078" lon="105.5712968"><ele>700.3</ele><time>2026-03-14T18:32:37.000Z</time></trkpt>
        <trkpt lat="28.7436019" lon="105.5714076"><ele>699.33</ele><time>2026-03-14T18:33:03.000Z</time></trkpt>
        <trkpt lat="28.7435503" lon="105.57151"><ele>699.19</ele><time>2026-03-14T18:33:13.000Z</time></trkpt>
        <trkpt lat="28.7434716" lon="105.5715844"><ele>698.95</ele><time>2026-03-14T18:33:21.000Z</time></trkpt>
        <trkpt lat="28.7433762" lon="105.5716422"><ele>699.02</ele><time>2026-03-14T18:33:29.000Z</time></trkpt>
        <trkpt lat="28.7432854" lon="105.5716876"><ele>698.62</ele><time>2026-03-14T18:33:37.000Z</time></trkpt>
        <trkpt lat="28.7432009" lon="105.5717389"><ele>698.93</ele><time>2026-03-14T18:33:47.000Z</time></trkpt>
        <trkpt lat="28.7431042" lon="105.5718223"><ele>699.32</ele><time>2026-03-14T18:33:55.000Z</time></trkpt>
        <trkpt lat="28.7430507" lon="105.5719243"><ele>699.54</ele><time>2026-03-14T18:34:01.000Z</time></trkpt>
        <trkpt lat="28.7430505" lon="105.5720513"><ele>699.52</ele><time>2026-03-14T18:34:09.000Z</time></trkpt>
        <trkpt lat="28.7430549" lon="105.5721702"><ele>699.97</ele><time>2026-03-14T18:34:13.000Z</time></trkpt>
        <trkpt lat="28.7430588" lon="105.5722114"><ele>702.18</ele><time>2026-03-14T18:34:15.000Z</time></trkpt>
        <trkpt lat="28.7430561" lon="105.5722916"><ele>704.29</ele><time>2026-03-14T18:34:39.000Z</time></trkpt>
        <trkpt lat="28.7430525" lon="105.5724079"><ele>702.42</ele><time>2026-03-14T18:34:53.000Z</time></trkpt>
        <trkpt lat="28.743064" lon="105.5725186"><ele>701.36</ele><time>2026-03-14T18:35:01.000Z</time></trkpt>
        <trkpt lat="28.7431037" lon="105.5726206"><ele>700.34</ele><time>2026-03-14T18:35:15.000Z</time></trkpt>
        <trkpt lat="28.7431412" lon="105.5727243"><ele>695.11</ele><time>2026-03-14T18:35:27.000Z</time></trkpt>
        <trkpt lat="28.7431784" lon="105.5728301"><ele>694.97</ele><time>2026-03-14T18:35:41.000Z</time></trkpt>
        <trkpt lat="28.7432116" lon="105.5729369"><ele>691.08</ele><time>2026-03-14T18:35:49.000Z</time></trkpt>
        <trkpt lat="28.7431689" lon="105.5730249"><ele>689.38</ele><time>2026-03-14T18:35:55.000Z</time></trkpt>
        <trkpt lat="28.7431135" lon="105.5731125"><ele>689.27</ele><time>2026-03-14T18:36:05.000Z</time></trkpt>
        <trkpt lat="28.7430292" lon="105.5731966"><ele>688.4</ele><time>2026-03-14T18:36:15.000Z</time></trkpt>
        <trkpt lat="28.7429267" lon="105.5732216"><ele>687.76</ele><time>2026-03-14T18:36:23.000Z</time></trkpt>
        <trkpt lat="28.7428126" lon="105.5732165"><ele>687.14</ele><time>2026-03-14T18:36:31.000Z</time></trkpt>
        <trkpt lat="28.7427246" lon="105.5732386"><ele>687.15</ele><time>2026-03-14T18:36:45.000Z</time></trkpt>
        <trkpt lat="28.7426886" lon="105.5733403"><ele>686.72</ele><time>2026-03-14T18:38:05.000Z</time></trkpt>
        <trkpt lat="28.7426805" lon="105.5734552"><ele>686.06</ele><time>2026-03-14T18:38:21.000Z</time></trkpt>
        <trkpt lat="28.7426647" lon="105.573571"><ele>685.46</ele><time>2026-03-14T18:38:31.000Z</time></trkpt>
        <trkpt lat="28.7426197" lon="105.5736626"><ele>685.72</ele><time>2026-03-14T18:38:39.000Z</time></trkpt>
        <trkpt lat="28.7425452" lon="105.5737416"><ele>685.94</ele><time>2026-03-14T18:38:55.000Z</time></trkpt>
        <trkpt lat="28.7424527" lon="105.5737651"><ele>685.12</ele><time>2026-03-14T18:39:03.000Z</time></trkpt>
        <trkpt lat="28.7423474" lon="105.5737505"><ele>685</ele><time>2026-03-14T18:39:13.000Z</time></trkpt>
        <trkpt lat="28.7422481" lon="105.5737291"><ele>683.79</ele><time>2026-03-14T18:39:21.000Z</time></trkpt>
        <trkpt lat="28.7421416" lon="105.5737066"><ele>682.95</ele><time>2026-03-14T18:39:35.000Z</time></trkpt>
        <trkpt lat="28.7420464" lon="105.5736741"><ele>682.48</ele><time>2026-03-14T18:39:45.000Z</time></trkpt>
        <trkpt lat="28.7419565" lon="105.5736757"><ele>682.85</ele><time>2026-03-14T18:40:19.000Z</time></trkpt>
        <trkpt lat="28.7418699" lon="105.573707"><ele>681.54</ele><time>2026-03-14T18:40:53.000Z</time></trkpt>
        <trkpt lat="28.7417904" lon="105.5737815"><ele>680.31</ele><time>2026-03-14T18:41:56.000Z</time></trkpt>
        <trkpt lat="28.7416919" lon="105.573819"><ele>677.78</ele><time>2026-03-14T18:42:04.000Z</time></trkpt>
        <trkpt lat="28.7415828" lon="105.5738272"><ele>674.71</ele><time>2026-03-14T18:42:12.000Z</time></trkpt>
        <trkpt lat="28.7414843" lon="105.5738278"><ele>671.28</ele><time>2026-03-14T18:42:18.000Z</time></trkpt>
        <trkpt lat="28.7413754" lon="105.5738422"><ele>668.41</ele><time>2026-03-14T18:42:24.000Z</time></trkpt>
        <trkpt lat="28.7412612" lon="105.5738769"><ele>666.46</ele><time>2026-03-14T18:42:30.000Z</time></trkpt>
        <trkpt lat="28.7411499" lon="105.5739"><ele>665.21</ele><time>2026-03-14T18:42:36.000Z</time></trkpt>
        <trkpt lat="28.7410277" lon="105.5739004"><ele>664.41</ele><time>2026-03-14T18:42:42.000Z</time></trkpt>
        <trkpt lat="28.7409248" lon="105.5738904"><ele>662.78</ele><time>2026-03-14T18:42:46.000Z</time></trkpt>
        <trkpt lat="28.7408828" lon="105.5738738"><ele>661.43</ele><time>2026-03-14T18:42:48.000Z</time></trkpt>
        <trkpt lat="28.740811" lon="105.5738365"><ele>660.45</ele><time>2026-03-14T18:43:02.000Z</time></trkpt>
        <trkpt lat="28.7407286" lon="105.5737923"><ele>660.48</ele><time>2026-03-14T18:43:12.000Z</time></trkpt>
        <trkpt lat="28.7406245" lon="105.5737568"><ele>658.61</ele><time>2026-03-14T18:43:22.000Z</time></trkpt>
        <trkpt lat="28.7404957" lon="105.5737394"><ele>655.4</ele><time>2026-03-14T18:43:30.000Z</time></trkpt>
        <trkpt lat="28.7403928" lon="105.5737276"><ele>654.11</ele><time>2026-03-14T18:43:34.000Z</time></trkpt>
        <trkpt lat="28.7402951" lon="105.5737012"><ele>653.08</ele><time>2026-03-14T18:43:44.000Z</time></trkpt>
        <trkpt lat="28.7401826" lon="105.5736808"><ele>652.71</ele><time>2026-03-14T18:43:56.000Z</time></trkpt>
        <trkpt lat="28.740074" lon="105.5736871"><ele>649.81</ele><time>2026-03-14T18:44:04.000Z</time></trkpt>
        <trkpt lat="28.7400174" lon="105.5736917"><ele>646.19</ele><time>2026-03-14T18:44:08.000Z</time></trkpt>
        <trkpt lat="28.7399988" lon="105.5737018"><ele>644.24</ele><time>2026-03-14T18:44:16.000Z</time></trkpt>
        <trkpt lat="28.7399277" lon="105.5737236"><ele>643.95</ele><time>2026-03-14T18:44:46.000Z</time></trkpt>
        <trkpt lat="28.7398557" lon="105.5737631"><ele>642.96</ele><time>2026-03-14T18:45:02.000Z</time></trkpt>
        <trkpt lat="28.739766" lon="105.5737568"><ele>642.92</ele><time>2026-03-14T18:45:48.000Z</time></trkpt>
        <trkpt lat="28.7397053" lon="105.5737502"><ele>642.71</ele><time>2026-03-14T18:45:58.000Z</time></trkpt>
        <trkpt lat="28.7397585" lon="105.5737699"><ele>642.65</ele><time>2026-03-14T18:46:28.000Z</time></trkpt>
        <trkpt lat="28.7398512" lon="105.5737527"><ele>643.34</ele><time>2026-03-14T18:46:36.000Z</time></trkpt>
        <trkpt lat="28.739905" lon="105.5737367"><ele>641.9</ele><time>2026-03-14T18:46:40.000Z</time></trkpt>
        <trkpt lat="28.7400001" lon="105.5737287"><ele>642.98</ele><time>2026-03-14T18:46:54.000Z</time></trkpt>
        <trkpt lat="28.7400551" lon="105.5737178"><ele>642.54</ele><time>2026-03-14T18:47:02.000Z</time></trkpt>
        <trkpt lat="28.7400088" lon="105.5737675"><ele>641.56</ele><time>2026-03-14T18:47:28.000Z</time></trkpt>
        <trkpt lat="28.7399164" lon="105.5738083"><ele>640.42</ele><time>2026-03-14T18:47:38.000Z</time></trkpt>
        <trkpt lat="28.7398362" lon="105.5738786"><ele>640.14</ele><time>2026-03-14T18:47:46.000Z</time></trkpt>
        <trkpt lat="28.7398514" lon="105.5739679"><ele>639.72</ele><time>2026-03-14T18:47:58.000Z</time></trkpt>
        <trkpt lat="28.7399244" lon="105.5740427"><ele>639.62</ele><time>2026-03-14T18:48:06.000Z</time></trkpt>
        <trkpt lat="28.7400101" lon="105.5741265"><ele>639.9</ele><time>2026-03-14T18:48:16.000Z</time></trkpt>
        <trkpt lat="28.7400642" lon="105.5742389"><ele>640.25</ele><time>2026-03-14T18:48:24.000Z</time></trkpt>
        <trkpt lat="28.7401073" lon="105.5743506"><ele>640.78</ele><time>2026-03-14T18:48:32.000Z</time></trkpt>
        <trkpt lat="28.7401066" lon="105.5744752"><ele>641.34</ele><time>2026-03-14T18:48:42.000Z</time></trkpt>
        <trkpt lat="28.7400908" lon="105.5746003"><ele>642.97</ele><time>2026-03-14T18:49:24.000Z</time></trkpt>
        <trkpt lat="28.7400433" lon="105.5747038"><ele>642.43</ele><time>2026-03-14T18:49:36.000Z</time></trkpt>
        <trkpt lat="28.7399693" lon="105.5747787"><ele>641.74</ele><time>2026-03-14T18:49:44.000Z</time></trkpt>
        <trkpt lat="28.7399005" lon="105.5748294"><ele>641.04</ele><time>2026-03-14T18:49:54.000Z</time></trkpt>
        <trkpt lat="28.7398098" lon="105.5748507"><ele>640.41</ele><time>2026-03-14T18:50:32.000Z</time></trkpt>
        <trkpt lat="28.7397249" lon="105.5748965"><ele>640.15</ele><time>2026-03-14T18:50:42.000Z</time></trkpt>
        <trkpt lat="28.7396701" lon="105.5749813"><ele>640.5</ele><time>2026-03-14T18:50:50.000Z</time></trkpt>
        <trkpt lat="28.7396237" lon="105.5750751"><ele>640.9</ele><time>2026-03-14T18:50:56.000Z</time></trkpt>
        <trkpt lat="28.7395786" lon="105.5751946"><ele>641.43</ele><time>2026-03-14T18:51:04.000Z</time></trkpt>
        <trkpt lat="28.7395295" lon="105.5752955"><ele>642.36</ele><time>2026-03-14T18:51:10.000Z</time></trkpt>
        <trkpt lat="28.739474" lon="105.5754082"><ele>646.03</ele><time>2026-03-14T18:51:18.000Z</time></trkpt>
        <trkpt lat="28.7394423" lon="105.5754926"><ele>647.62</ele><time>2026-03-14T18:51:24.000Z</time></trkpt>
        <trkpt lat="28.7394208" lon="105.5756011"><ele>648.53</ele><time>2026-03-14T18:51:36.000Z</time></trkpt>
        <trkpt lat="28.7393956" lon="105.5757053"><ele>649.03</ele><time>2026-03-14T18:51:46.000Z</time></trkpt>
        <trkpt lat="28.7393411" lon="105.5757873"><ele>649.14</ele><time>2026-03-14T18:51:54.000Z</time></trkpt>
        <trkpt lat="28.7392677" lon="105.5758549"><ele>648.47</ele><time>2026-03-14T18:52:04.000Z</time></trkpt>
        <trkpt lat="28.7391769" lon="105.5759047"><ele>647.96</ele><time>2026-03-14T18:52:12.000Z</time></trkpt>
        <trkpt lat="28.7390907" lon="105.5759747"><ele>646.65</ele><time>2026-03-14T18:52:24.000Z</time></trkpt>
        <trkpt lat="28.7390131" lon="105.5760438"><ele>645.46</ele><time>2026-03-14T18:52:32.000Z</time></trkpt>
        <trkpt lat="28.7389138" lon="105.5760878"><ele>644.33</ele><time>2026-03-14T18:52:42.000Z</time></trkpt>
        <trkpt lat="28.7388262" lon="105.5761401"><ele>643.55</ele><time>2026-03-14T18:52:50.000Z</time></trkpt>
        <trkpt lat="28.7387609" lon="105.5762216"><ele>643.35</ele><time>2026-03-14T18:52:58.000Z</time></trkpt>
        <trkpt lat="28.7387668" lon="105.5763231"><ele>642.62</ele><time>2026-03-14T18:53:10.000Z</time></trkpt>
        <trkpt lat="28.7388454" lon="105.576394"><ele>641.27</ele><time>2026-03-14T18:53:20.000Z</time></trkpt>
        <trkpt lat="28.7389462" lon="105.5764476"><ele>639.66</ele><time>2026-03-14T18:53:26.000Z</time></trkpt>
        <trkpt lat="28.7390346" lon="105.5765199"><ele>638.03</ele><time>2026-03-14T18:53:34.000Z</time></trkpt>
        <trkpt lat="28.7390701" lon="105.5765501"><ele>637.18</ele><time>2026-03-14T18:53:50.000Z</time></trkpt>
        <trkpt lat="28.739149" lon="105.5765782"><ele>635.51</ele><time>2026-03-14T18:54:14.000Z</time></trkpt>
        <trkpt lat="28.739238" lon="105.5766165"><ele>634.8</ele><time>2026-03-14T18:54:24.000Z</time></trkpt>
        <trkpt lat="28.7393413" lon="105.5766552"><ele>632.98</ele><time>2026-03-14T18:54:32.000Z</time></trkpt>
        <trkpt lat="28.7394463" lon="105.5767078"><ele>634.03</ele><time>2026-03-14T18:54:40.000Z</time></trkpt>
        <trkpt lat="28.7395062" lon="105.5767907"><ele>634.69</ele><time>2026-03-14T18:54:50.000Z</time></trkpt>
        <trkpt lat="28.7395457" lon="105.5768869"><ele>634.48</ele><time>2026-03-14T18:55:02.000Z</time></trkpt>
        <trkpt lat="28.7395776" lon="105.5769876"><ele>634.49</ele><time>2026-03-14T18:55:14.000Z</time></trkpt>
        <trkpt lat="28.7396068" lon="105.5771004"><ele>634.83</ele><time>2026-03-14T18:55:44.000Z</time></trkpt>
        <trkpt lat="28.7396035" lon="105.5772215"><ele>636.82</ele><time>2026-03-14T18:55:54.000Z</time></trkpt>
        <trkpt lat="28.7395537" lon="105.5773188"><ele>637.81</ele><time>2026-03-14T18:56:02.000Z</time></trkpt>
        <trkpt lat="28.7395452" lon="105.5774315"><ele>636.93</ele><time>2026-03-14T18:56:10.000Z</time></trkpt>
        <trkpt lat="28.7395688" lon="105.577493"><ele>637.05</ele><time>2026-03-14T18:56:16.000Z</time></trkpt>
        <trkpt lat="28.7396513" lon="105.5775266"><ele>635.72</ele><time>2026-03-14T18:56:24.000Z</time></trkpt>
        <trkpt lat="28.7397498" lon="105.5775352"><ele>636.01</ele><time>2026-03-14T18:56:32.000Z</time></trkpt>
        <trkpt lat="28.7398681" lon="105.5775378"><ele>635.99</ele><time>2026-03-14T18:56:44.000Z</time></trkpt>
        <trkpt lat="28.7399549" lon="105.5776001"><ele>636.16</ele><time>2026-03-14T18:56:54.000Z</time></trkpt>
        <trkpt lat="28.74003" lon="105.5776962"><ele>637.75</ele><time>2026-03-14T18:57:06.000Z</time></trkpt>
        <trkpt lat="28.7400852" lon="105.5777642"><ele>638.82</ele><time>2026-03-14T18:57:12.000Z</time></trkpt>
        <trkpt lat="28.7401474" lon="105.577833"><ele>640.52</ele><time>2026-03-14T18:57:24.000Z</time></trkpt>
        <trkpt lat="28.7401832" lon="105.5779317"><ele>641.78</ele><time>2026-03-14T18:57:32.000Z</time></trkpt>
        <trkpt lat="28.740233" lon="105.5780325"><ele>642.66</ele><time>2026-03-14T18:57:42.000Z</time></trkpt>
        <trkpt lat="28.7403033" lon="105.5781683"><ele>642.96</ele><time>2026-03-14T18:57:52.000Z</time></trkpt>
        <trkpt lat="28.7403614" lon="105.5782763"><ele>643.61</ele><time>2026-03-14T18:58:20.000Z</time></trkpt>
        <trkpt lat="28.7404299" lon="105.5783619"><ele>645.54</ele><time>2026-03-14T18:58:34.000Z</time></trkpt>
        <trkpt lat="28.7404697" lon="105.578456"><ele>647.94</ele><time>2026-03-14T18:58:50.000Z</time></trkpt>
        <trkpt lat="28.7404768" lon="105.5785621"><ele>651.02</ele><time>2026-03-14T18:58:58.000Z</time></trkpt>
        <trkpt lat="28.7404769" lon="105.5786711"><ele>653.28</ele><time>2026-03-14T18:59:06.000Z</time></trkpt>
        <trkpt lat="28.7404724" lon="105.578794"><ele>654.39</ele><time>2026-03-14T18:59:12.000Z</time></trkpt>
        <trkpt lat="28.7404714" lon="105.5789099"><ele>657.99</ele><time>2026-03-14T18:59:21.000Z</time></trkpt>
        <trkpt lat="28.740475" lon="105.5790354"><ele>659.28</ele><time>2026-03-14T18:59:30.000Z</time></trkpt>
        <trkpt lat="28.7405079" lon="105.5791563"><ele>659.02</ele><time>2026-03-14T18:59:38.000Z</time></trkpt>
        <trkpt lat="28.7405444" lon="105.5792582"><ele>661.47</ele><time>2026-03-14T18:59:46.000Z</time></trkpt>
        <trkpt lat="28.7405811" lon="105.5793567"><ele>662.31</ele><time>2026-03-14T18:59:52.000Z</time></trkpt>
        <trkpt lat="28.7405899" lon="105.5794225"><ele>662.4</ele><time>2026-03-14T18:59:56.000Z</time></trkpt>
        <trkpt lat="28.7405443" lon="105.5794968"><ele>662.44</ele><time>2026-03-14T19:00:06.000Z</time></trkpt>
        <trkpt lat="28.740501" lon="105.5795926"><ele>662.39</ele><time>2026-03-14T19:00:16.000Z</time></trkpt>
        <trkpt lat="28.7405148" lon="105.5796885"><ele>662.19</ele><time>2026-03-14T19:00:24.000Z</time></trkpt>
        <trkpt lat="28.7405672" lon="105.5797807"><ele>661.68</ele><time>2026-03-14T19:00:34.000Z</time></trkpt>
        <trkpt lat="28.7406479" lon="105.579872"><ele>661.25</ele><time>2026-03-14T19:00:42.000Z</time></trkpt>
        <trkpt lat="28.7407348" lon="105.5799556"><ele>660.11</ele><time>2026-03-14T19:00:50.000Z</time></trkpt>
        <trkpt lat="28.7408002" lon="105.580049"><ele>658.43</ele><time>2026-03-14T19:00:58.000Z</time></trkpt>
        <trkpt lat="28.7408446" lon="105.5801459"><ele>657.61</ele><time>2026-03-14T19:01:07.000Z</time></trkpt>
        <trkpt lat="28.7408614" lon="105.5801835"><ele>657.41</ele><time>2026-03-14T19:01:09.000Z</time></trkpt>
        <trkpt lat="28.7409235" lon="105.5802422"><ele>657.28</ele><time>2026-03-14T19:01:21.000Z</time></trkpt>
        <trkpt lat="28.740997" lon="105.5803044"><ele>656.97</ele><time>2026-03-14T19:01:29.000Z</time></trkpt>
        <trkpt lat="28.7410792" lon="105.5803766"><ele>656.63</ele><time>2026-03-14T19:01:37.000Z</time></trkpt>
        <trkpt lat="28.7411248" lon="105.5804707"><ele>656.21</ele><time>2026-03-14T19:01:45.000Z</time></trkpt>
        <trkpt lat="28.7411218" lon="105.580552"><ele>655.52</ele><time>2026-03-14T19:01:55.000Z</time></trkpt>
        <trkpt lat="28.7411044" lon="105.580653"><ele>656.74</ele><time>2026-03-14T19:02:13.000Z</time></trkpt>
        <trkpt lat="28.7411006" lon="105.5807636"><ele>657.92</ele><time>2026-03-14T19:02:22.000Z</time></trkpt>
        <trkpt lat="28.7410776" lon="105.5808748"><ele>658.48</ele><time>2026-03-14T19:02:30.000Z</time></trkpt>
        <trkpt lat="28.741075" lon="105.5808968"><ele>656.17</ele><time>2026-03-14T19:02:32.000Z</time></trkpt>
        <trkpt lat="28.7410284" lon="105.5809611"><ele>655.57</ele><time>2026-03-14T19:03:04.000Z</time></trkpt>
        <trkpt lat="28.7409837" lon="105.5810618"><ele>655.55</ele><time>2026-03-14T19:03:14.000Z</time></trkpt>
        <trkpt lat="28.7409444" lon="105.581175"><ele>654.94</ele><time>2026-03-14T19:03:22.000Z</time></trkpt>
        <trkpt lat="28.7408986" lon="105.5812975"><ele>653.84</ele><time>2026-03-14T19:03:30.000Z</time></trkpt>
        <trkpt lat="28.7408359" lon="105.5813872"><ele>652.35</ele><time>2026-03-14T19:03:40.000Z</time></trkpt>
        <trkpt lat="28.7407787" lon="105.5814491"><ele>647.58</ele><time>2026-03-14T19:03:44.000Z</time></trkpt>
        <trkpt lat="28.7406959" lon="105.5814675"><ele>649.4</ele><time>2026-03-14T19:03:50.000Z</time></trkpt>
        <trkpt lat="28.7406098" lon="105.5814187"><ele>650.4</ele><time>2026-03-14T19:04:00.000Z</time></trkpt>
        <trkpt lat="28.7405115" lon="105.5814092"><ele>653.47</ele><time>2026-03-14T19:04:12.000Z</time></trkpt>
        <trkpt lat="28.7404861" lon="105.5814824"><ele>653.52</ele><time>2026-03-14T19:04:42.000Z</time></trkpt>
        <trkpt lat="28.7404959" lon="105.5815967"><ele>654.61</ele><time>2026-03-14T19:04:56.000Z</time></trkpt>
        <trkpt lat="28.7404674" lon="105.5817069"><ele>655.87</ele><time>2026-03-14T19:05:06.000Z</time></trkpt>
        <trkpt lat="28.7404444" lon="105.5818285"><ele>657.68</ele><time>2026-03-14T19:05:16.000Z</time></trkpt>
        <trkpt lat="28.7404278" lon="105.5819467"><ele>659.93</ele><time>2026-03-14T19:05:30.000Z</time></trkpt>
        <trkpt lat="28.7404066" lon="105.5820269"><ele>663.97</ele><time>2026-03-14T19:05:40.000Z</time></trkpt>
        <trkpt lat="28.7403987" lon="105.5819518"><ele>666.82</ele><time>2026-03-14T19:06:20.000Z</time></trkpt>
        <trkpt lat="28.7403872" lon="105.5818327"><ele>670.01</ele><time>2026-03-14T19:06:28.000Z</time></trkpt>
        <trkpt lat="28.7403925" lon="105.5816985"><ele>671.47</ele><time>2026-03-14T19:06:38.000Z</time></trkpt>
        <trkpt lat="28.7403292" lon="105.5816229"><ele>673.33</ele><time>2026-03-14T19:06:48.000Z</time></trkpt>
        <trkpt lat="28.7402378" lon="105.5815935"><ele>674.79</ele><time>2026-03-14T19:06:56.000Z</time></trkpt>
        <trkpt lat="28.740138" lon="105.5815947"><ele>675.97</ele><time>2026-03-14T19:07:04.000Z</time></trkpt>
        <trkpt lat="28.7400318" lon="105.5816293"><ele>676.73</ele><time>2026-03-14T19:07:16.000Z</time></trkpt>
        <trkpt lat="28.7399228" lon="105.5816505"><ele>677.09</ele><time>2026-03-14T19:07:24.000Z</time></trkpt>
        <trkpt lat="28.7398225" lon="105.5816196"><ele>678.24</ele><time>2026-03-14T19:07:34.000Z</time></trkpt>
        <trkpt lat="28.739714" lon="105.5815793"><ele>678.68</ele><time>2026-03-14T19:07:44.000Z</time></trkpt>
        <trkpt lat="28.7396529" lon="105.5815437"><ele>680.88</ele><time>2026-03-14T19:07:46.000Z</time></trkpt>
        <trkpt lat="28.7395698" lon="105.581542"><ele>683.15</ele><time>2026-03-14T19:07:52.000Z</time></trkpt>
        <trkpt lat="28.7394792" lon="105.5815919"><ele>685.17</ele><time>2026-03-14T19:08:02.000Z</time></trkpt>
        <trkpt lat="28.7393879" lon="105.5816659"><ele>683.86</ele><time>2026-03-14T19:08:08.000Z</time></trkpt>
        <trkpt lat="28.739297" lon="105.5816593"><ele>683.62</ele><time>2026-03-14T19:08:24.000Z</time></trkpt>
        <trkpt lat="28.7392689" lon="105.5815511"><ele>684.2</ele><time>2026-03-14T19:08:34.000Z</time></trkpt>
        <trkpt lat="28.7392844" lon="105.5814341"><ele>684.56</ele><time>2026-03-14T19:08:46.000Z</time></trkpt>
        <trkpt lat="28.7393086" lon="105.5813049"><ele>686.17</ele><time>2026-03-14T19:08:56.000Z</time></trkpt>
        <trkpt lat="28.7393178" lon="105.5811817"><ele>687.06</ele><time>2026-03-14T19:09:04.000Z</time></trkpt>
        <trkpt lat="28.7393177" lon="105.581062"><ele>686.38</ele><time>2026-03-14T19:09:10.000Z</time></trkpt>
        <trkpt lat="28.739285" lon="105.5809482"><ele>686.01</ele><time>2026-03-14T19:09:18.000Z</time></trkpt>
        <trkpt lat="28.7392414" lon="105.5808806"><ele>686.39</ele><time>2026-03-14T19:09:24.000Z</time></trkpt>
        <trkpt lat="28.7391501" lon="105.5808214"><ele>685.28</ele><time>2026-03-14T19:09:32.000Z</time></trkpt>
        <trkpt lat="28.7390997" lon="105.5807918"><ele>683.05</ele><time>2026-03-14T19:09:34.000Z</time></trkpt>
        <trkpt lat="28.7390203" lon="105.5807601"><ele>682</ele><time>2026-03-14T19:09:40.000Z</time></trkpt>
        <trkpt lat="28.7389175" lon="105.5807257"><ele>682.61</ele><time>2026-03-14T19:09:50.000Z</time></trkpt>
        <trkpt lat="28.7388263" lon="105.5806752"><ele>683</ele><time>2026-03-14T19:09:58.000Z</time></trkpt>
        <trkpt lat="28.7387644" lon="105.5805853"><ele>682.93</ele><time>2026-03-14T19:10:04.000Z</time></trkpt>
        <trkpt lat="28.7387321" lon="105.580481"><ele>680.7</ele><time>2026-03-14T19:10:12.000Z</time></trkpt>
        <trkpt lat="28.7387417" lon="105.5805341"><ele>680.71</ele><time>2026-03-14T19:10:26.000Z</time></trkpt>
        <trkpt lat="28.7387951" lon="105.5806389"><ele>681.41</ele><time>2026-03-14T19:10:34.000Z</time></trkpt>
        <trkpt lat="28.7388106" lon="105.5806712"><ele>685.2</ele><time>2026-03-14T19:10:38.000Z</time></trkpt>
        <trkpt lat="28.7387429" lon="105.5807024"><ele>684.46</ele><time>2026-03-14T19:11:36.000Z</time></trkpt>
        <trkpt lat="28.7387846" lon="105.5806924"><ele>684.69</ele><time>2026-03-14T19:12:08.000Z</time></trkpt>
        <trkpt lat="28.7388803" lon="105.5806817"><ele>686.47</ele><time>2026-03-14T19:12:20.000Z</time></trkpt>
        <trkpt lat="28.7389864" lon="105.580681"><ele>688.19</ele><time>2026-03-14T19:12:54.000Z</time></trkpt>
        <trkpt lat="28.7390969" lon="105.5806817"><ele>686.98</ele><time>2026-03-14T19:13:12.000Z</time></trkpt>
        <trkpt lat="28.7391748" lon="105.5806153"><ele>685.82</ele><time>2026-03-14T19:13:22.000Z</time></trkpt>
        <trkpt lat="28.7392055" lon="105.5805139"><ele>684.98</ele><time>2026-03-14T19:13:28.000Z</time></trkpt>
        <trkpt lat="28.7392142" lon="105.5803861"><ele>684.83</ele><time>2026-03-14T19:13:34.000Z</time></trkpt>
        <trkpt lat="28.7392501" lon="105.5802713"><ele>683.98</ele><time>2026-03-14T19:14:22.000Z</time></trkpt>
        <trkpt lat="28.7392875" lon="105.5801672"><ele>683.23</ele><time>2026-03-14T19:14:32.000Z</time></trkpt>
        <trkpt lat="28.7393106" lon="105.5800565"><ele>682.48</ele><time>2026-03-14T19:14:40.000Z</time></trkpt>
        <trkpt lat="28.7392871" lon="105.5799431"><ele>682.27</ele><time>2026-03-14T19:14:50.000Z</time></trkpt>
        <trkpt lat="28.7392557" lon="105.5798172"><ele>682.17</ele><time>2026-03-14T19:14:58.000Z</time></trkpt>
        <trkpt lat="28.7392388" lon="105.5797014"><ele>682.12</ele><time>2026-03-14T19:15:06.000Z</time></trkpt>
        <trkpt lat="28.7392423" lon="105.5795958"><ele>683.92</ele><time>2026-03-14T19:15:10.000Z</time></trkpt>
        <trkpt lat="28.7392154" lon="105.5794905"><ele>683.5</ele><time>2026-03-14T19:15:20.000Z</time></trkpt>
        <trkpt lat="28.739234" lon="105.5793831"><ele>682.74</ele><time>2026-03-14T19:15:32.000Z</time></trkpt>
        <trkpt lat="28.7392713" lon="105.5792743"><ele>681.12</ele><time>2026-03-14T19:15:46.000Z</time></trkpt>
        <trkpt lat="28.739264" lon="105.5791696"><ele>677.93</ele><time>2026-03-14T19:15:54.000Z</time></trkpt>
        <trkpt lat="28.7392357" lon="105.5790427"><ele>671.95</ele><time>2026-03-14T19:15:58.000Z</time></trkpt>
        <trkpt lat="28.7392276" lon="105.5789783"><ele>672.3</ele><time>2026-03-14T19:16:02.000Z</time></trkpt>
        <trkpt lat="28.7392089" lon="105.5788868"><ele>672.67</ele><time>2026-03-14T19:16:12.000Z</time></trkpt>
        <trkpt lat="28.7391286" lon="105.5788688"><ele>671.52</ele><time>2026-03-14T19:16:32.000Z</time></trkpt>
        <trkpt lat="28.7390386" lon="105.5788198"><ele>670.65</ele><time>2026-03-14T19:16:38.000Z</time></trkpt>
        <trkpt lat="28.7389821" lon="105.5787326"><ele>669.27</ele><time>2026-03-14T19:16:50.000Z</time></trkpt>
        <trkpt lat="28.7389181" lon="105.5786515"><ele>667.9</ele><time>2026-03-14T19:17:00.000Z</time></trkpt>
        <trkpt lat="28.7388959" lon="105.5785817"><ele>666.72</ele><time>2026-03-14T19:17:12.000Z</time></trkpt>
        <trkpt lat="28.7388428" lon="105.578514"><ele>666.87</ele><time>2026-03-14T19:17:30.000Z</time></trkpt>
        <trkpt lat="28.7387788" lon="105.5784451"><ele>666.53</ele><time>2026-03-14T19:17:38.000Z</time></trkpt>
        <trkpt lat="28.7386911" lon="105.5783855"><ele>665.41</ele><time>2026-03-14T19:17:46.000Z</time></trkpt>
        <trkpt lat="28.7385966" lon="105.5783288"><ele>663.79</ele><time>2026-03-14T19:17:54.000Z</time></trkpt>
        <trkpt lat="28.7385018" lon="105.5782817"><ele>662.76</ele><time>2026-03-14T19:18:02.000Z</time></trkpt>
        <trkpt lat="28.7384054" lon="105.5782389"><ele>662.1</ele><time>2026-03-14T19:18:08.000Z</time></trkpt>
        <trkpt lat="28.738356" lon="105.5781513"><ele>661.11</ele><time>2026-03-14T19:18:15.000Z</time></trkpt>
        <trkpt lat="28.7383019" lon="105.5780691"><ele>664.35</ele><time>2026-03-14T19:18:18.000Z</time></trkpt>
        <trkpt lat="28.7382268" lon="105.578005"><ele>666.29</ele><time>2026-03-14T19:18:32.000Z</time></trkpt>
        <trkpt lat="28.7381424" lon="105.5779479"><ele>666.67</ele><time>2026-03-14T19:18:52.000Z</time></trkpt>
        <trkpt lat="28.7380469" lon="105.5779446"><ele>667.91</ele><time>2026-03-14T19:19:04.000Z</time></trkpt>
        <trkpt lat="28.7379524" lon="105.57792"><ele>669.26</ele><time>2026-03-14T19:19:10.000Z</time></trkpt>
        <trkpt lat="28.7378673" lon="105.5778753"><ele>669.76</ele><time>2026-03-14T19:19:42.000Z</time></trkpt>
        <trkpt lat="28.7378303" lon="105.577778"><ele>670.66</ele><time>2026-03-14T19:19:56.000Z</time></trkpt>
        <trkpt lat="28.7378279" lon="105.5778418"><ele>672.03</ele><time>2026-03-14T19:20:14.000Z</time></trkpt>
        <trkpt lat="28.7377614" lon="105.5779149"><ele>673.05</ele><time>2026-03-14T19:20:22.000Z</time></trkpt>
        <trkpt lat="28.7376611" lon="105.5779506"><ele>673</ele><time>2026-03-14T19:20:30.000Z</time></trkpt>
        <trkpt lat="28.7375554" lon="105.5779593"><ele>673.64</ele><time>2026-03-14T19:20:38.000Z</time></trkpt>
        <trkpt lat="28.7374564" lon="105.5779357"><ele>675.17</ele><time>2026-03-14T19:20:46.000Z</time></trkpt>
        <trkpt lat="28.7373661" lon="105.5778829"><ele>676.05</ele><time>2026-03-14T19:20:54.000Z</time></trkpt>
        <trkpt lat="28.7372779" lon="105.577834"><ele>676.27</ele><time>2026-03-14T19:21:00.000Z</time></trkpt>
        <trkpt lat="28.7371796" lon="105.5778028"><ele>675.91</ele><time>2026-03-14T19:21:06.000Z</time></trkpt>
        <trkpt lat="28.7370558" lon="105.5777967"><ele>675.68</ele><time>2026-03-14T19:21:14.000Z</time></trkpt>
        <trkpt lat="28.7369657" lon="105.5777854"><ele>677.26</ele><time>2026-03-14T19:21:18.000Z</time></trkpt>
        <trkpt lat="28.7368709" lon="105.5777725"><ele>679.02</ele><time>2026-03-14T19:21:26.000Z</time></trkpt>
        <trkpt lat="28.7367698" lon="105.5777794"><ele>679.52</ele><time>2026-03-14T19:21:36.000Z</time></trkpt>
        <trkpt lat="28.7367271" lon="105.5777034"><ele>676.25</ele><time>2026-03-14T19:21:44.000Z</time></trkpt>
        <trkpt lat="28.7367102" lon="105.5775824"><ele>673.61</ele><time>2026-03-14T19:21:56.000Z</time></trkpt>
        <trkpt lat="28.736701" lon="105.5774653"><ele>671.82</ele><time>2026-03-14T19:22:04.000Z</time></trkpt>
        <trkpt lat="28.7366953" lon="105.5773453"><ele>670.84</ele><time>2026-03-14T19:22:14.000Z</time></trkpt>
        <trkpt lat="28.7366926" lon="105.5772332"><ele>669.62</ele><time>2026-03-14T19:22:50.000Z</time></trkpt>
        <trkpt lat="28.7367348" lon="105.5771384"><ele>667.83</ele><time>2026-03-14T19:22:56.000Z</time></trkpt>
        <trkpt lat="28.7368067" lon="105.5770495"><ele>667.29</ele><time>2026-03-14T19:23:04.000Z</time></trkpt>
        <trkpt lat="28.73683" lon="105.5770267"><ele>666.91</ele><time>2026-03-14T19:23:06.000Z</time></trkpt>
        <trkpt lat="28.7368508" lon="105.5769286"><ele>666.98</ele><time>2026-03-14T19:23:44.000Z</time></trkpt>
        <trkpt lat="28.7368499" lon="105.5768138"><ele>666.45</ele><time>2026-03-14T19:23:52.000Z</time></trkpt>
        <trkpt lat="28.7368328" lon="105.5766994"><ele>660.46</ele><time>2026-03-14T19:23:58.000Z</time></trkpt>
        <trkpt lat="28.7368149" lon="105.5765922"><ele>659.76</ele><time>2026-03-14T19:24:04.000Z</time></trkpt>
        <trkpt lat="28.7368062" lon="105.5764737"><ele>659.34</ele><time>2026-03-14T19:24:12.000Z</time></trkpt>
        <trkpt lat="28.7368191" lon="105.5763607"><ele>659.4</ele><time>2026-03-14T19:24:20.000Z</time></trkpt>
        <trkpt lat="28.7368828" lon="105.5762485"><ele>659.03</ele><time>2026-03-14T19:24:30.000Z</time></trkpt>
        <trkpt lat="28.7369526" lon="105.5761558"><ele>659.5</ele><time>2026-03-14T19:24:36.000Z</time></trkpt>
        <trkpt lat="28.7369888" lon="105.5761132"><ele>658.05</ele><time>2026-03-14T19:24:38.000Z</time></trkpt>
        <trkpt lat="28.7369991" lon="105.5760245"><ele>656.82</ele><time>2026-03-14T19:24:44.000Z</time></trkpt>
        <trkpt lat="28.7369803" lon="105.575921"><ele>657.6</ele><time>2026-03-14T19:24:58.000Z</time></trkpt>
        <trkpt lat="28.7368991" lon="105.57587"><ele>658.49</ele><time>2026-03-14T19:25:06.000Z</time></trkpt>
        <trkpt lat="28.7367993" lon="105.5758897"><ele>658.92</ele><time>2026-03-14T19:25:14.000Z</time></trkpt>
        <trkpt lat="28.7366948" lon="105.5759321"><ele>659.17</ele><time>2026-03-14T19:25:22.000Z</time></trkpt>
        <trkpt lat="28.7365972" lon="105.5759857"><ele>661.57</ele><time>2026-03-14T19:25:30.000Z</time></trkpt>
        <trkpt lat="28.7364933" lon="105.5760232"><ele>662.31</ele><time>2026-03-14T19:25:38.000Z</time></trkpt>
        <trkpt lat="28.7363929" lon="105.576051"><ele>662.42</ele><time>2026-03-14T19:25:46.000Z</time></trkpt>
        <trkpt lat="28.7362963" lon="105.5760511"><ele>662.05</ele><time>2026-03-14T19:25:54.000Z</time></trkpt>
        <trkpt lat="28.7362051" lon="105.5760413"><ele>660.23</ele><time>2026-03-14T19:26:02.000Z</time></trkpt>
        <trkpt lat="28.736094" lon="105.5760448"><ele>659.17</ele><time>2026-03-14T19:26:10.000Z</time></trkpt>
        <trkpt lat="28.7359811" lon="105.5760566"><ele>659.05</ele><time>2026-03-14T19:26:16.000Z</time></trkpt>
        <trkpt lat="28.735873" lon="105.5760509"><ele>658.97</ele><time>2026-03-14T19:26:22.000Z</time></trkpt>
        <trkpt lat="28.7357797" lon="105.5760165"><ele>659.03</ele><time>2026-03-14T19:26:30.000Z</time></trkpt>
        <trkpt lat="28.7357543" lon="105.5760104"><ele>659.51</ele><time>2026-03-14T19:26:38.000Z</time></trkpt>
        <trkpt lat="28.7357005" lon="105.5759472"><ele>660.74</ele><time>2026-03-14T19:26:52.000Z</time></trkpt>
        <trkpt lat="28.7356261" lon="105.5758829"><ele>660.8</ele><time>2026-03-14T19:27:02.000Z</time></trkpt>
        <trkpt lat="28.7355733" lon="105.575791"><ele>659.99</ele><time>2026-03-14T19:27:18.000Z</time></trkpt>
        <trkpt lat="28.7355153" lon="105.5757064"><ele>659.05</ele><time>2026-03-14T19:27:28.000Z</time></trkpt>
        <trkpt lat="28.7354641" lon="105.5756012"><ele>658.28</ele><time>2026-03-14T19:27:46.000Z</time></trkpt>
        <trkpt lat="28.7354148" lon="105.5754938"><ele>657.05</ele><time>2026-03-14T19:27:54.000Z</time></trkpt>
        <trkpt lat="28.7353761" lon="105.5753734"><ele>656.6</ele><time>2026-03-14T19:28:04.000Z</time></trkpt>
        <trkpt lat="28.7353563" lon="105.5752482"><ele>654.76</ele><time>2026-03-14T19:28:12.000Z</time></trkpt>
        <trkpt lat="28.7353277" lon="105.5751357"><ele>653.36</ele><time>2026-03-14T19:28:20.000Z</time></trkpt>
        <trkpt lat="28.7352782" lon="105.5750424"><ele>650.46</ele><time>2026-03-14T19:28:28.000Z</time></trkpt>
        <trkpt lat="28.7352542" lon="105.574989"><ele>647.95</ele><time>2026-03-14T19:28:30.000Z</time></trkpt>
        <trkpt lat="28.735208" lon="105.5749031"><ele>647.42</ele><time>2026-03-14T19:28:40.000Z</time></trkpt>
        <trkpt lat="28.7351904" lon="105.5748"><ele>647.13</ele><time>2026-03-14T19:28:48.000Z</time></trkpt>
        <trkpt lat="28.7352044" lon="105.5746793"><ele>646.5</ele><time>2026-03-14T19:29:04.000Z</time></trkpt>
        <trkpt lat="28.7352315" lon="105.5745531"><ele>648.05</ele><time>2026-03-14T19:29:14.000Z</time></trkpt>
        <trkpt lat="28.7352481" lon="105.5744303"><ele>648.51</ele><time>2026-03-14T19:29:22.000Z</time></trkpt>
        <trkpt lat="28.7352316" lon="105.5743139"><ele>648.82</ele><time>2026-03-14T19:29:30.000Z</time></trkpt>
        <trkpt lat="28.7351966" lon="105.5742331"><ele>648.62</ele><time>2026-03-14T19:29:40.000Z</time></trkpt>
        <trkpt lat="28.735121" lon="105.5741651"><ele>647.9</ele><time>2026-03-14T19:30:02.000Z</time></trkpt>
        <trkpt lat="28.7350343" lon="105.5740999"><ele>647.13</ele><time>2026-03-14T19:30:09.000Z</time></trkpt>
        <trkpt lat="28.7349503" lon="105.5740231"><ele>645.87</ele><time>2026-03-14T19:30:15.000Z</time></trkpt>
        <trkpt lat="28.7348724" lon="105.5739347"><ele>647.26</ele><time>2026-03-14T19:30:23.000Z</time></trkpt>
        <trkpt lat="28.7347957" lon="105.5738535"><ele>647.69</ele><time>2026-03-14T19:30:31.000Z</time></trkpt>
        <trkpt lat="28.7347317" lon="105.5737502"><ele>646.63</ele><time>2026-03-14T19:30:39.000Z</time></trkpt>
        <trkpt lat="28.7346623" lon="105.5736505"><ele>645.77</ele><time>2026-03-14T19:30:47.000Z</time></trkpt>
        <trkpt lat="28.7345605" lon="105.5736175"><ele>644.54</ele><time>2026-03-14T19:30:57.000Z</time></trkpt>
        <trkpt lat="28.7344627" lon="105.5736793"><ele>639.24</ele><time>2026-03-14T19:31:05.000Z</time></trkpt>
        <trkpt lat="28.7343821" lon="105.5737721"><ele>635.42</ele><time>2026-03-14T19:31:11.000Z</time></trkpt>
        <trkpt lat="28.7343124" lon="105.5738641"><ele>632.41</ele><time>2026-03-14T19:31:17.000Z</time></trkpt>
        <trkpt lat="28.734228" lon="105.5739501"><ele>634.1</ele><time>2026-03-14T19:31:21.000Z</time></trkpt>
        <trkpt lat="28.7341157" lon="105.574004"><ele>634.89</ele><time>2026-03-14T19:31:27.000Z</time></trkpt>
        <trkpt lat="28.7340117" lon="105.574071"><ele>635</ele><time>2026-03-14T19:31:39.000Z</time></trkpt>
        <trkpt lat="28.7338859" lon="105.574096"><ele>629.1</ele><time>2026-03-14T19:31:45.000Z</time></trkpt>
        <trkpt lat="28.7338237" lon="105.574099"><ele>631.08</ele><time>2026-03-14T19:31:55.000Z</time></trkpt>
        <trkpt lat="28.7337444" lon="105.5740974"><ele>625.97</ele><time>2026-03-14T19:33:03.000Z</time></trkpt>
        <trkpt lat="28.733657" lon="105.5740714"><ele>622.57</ele><time>2026-03-14T19:33:11.000Z</time></trkpt>
        <trkpt lat="28.7335807" lon="105.5739915"><ele>620.22</ele><time>2026-03-14T19:33:19.000Z</time></trkpt>
        <trkpt lat="28.7335807" lon="105.5739915"><ele>620.22</ele><time>2026-03-14T19:33:25.000Z</time></trkpt>
      </trkseg>
      <trkseg>
        <trkpt lat="28.7335093" lon="105.5739157"><ele>620.08</ele><time>2026-03-14T19:33:57.000Z</time></trkpt>
        <trkpt lat="28.7335093" lon="105.5739157"><ele>620.08</ele><time>2026-03-14T19:33:59.000Z</time></trkpt>
        <trkpt lat="28.7334285" lon="105.5738661"><ele>619.22</ele><time>2026-03-14T19:34:05.000Z</time></trkpt>
        <trkpt lat="28.7333959" lon="105.5738369"><ele>618.28</ele><time>2026-03-14T19:34:17.000Z</time></trkpt>
        <trkpt lat="28.7333096" lon="105.5738494"><ele>616.44</ele><time>2026-03-14T19:34:39.000Z</time></trkpt>
        <trkpt lat="28.7332032" lon="105.5738611"><ele>614.65</ele><time>2026-03-14T19:34:47.000Z</time></trkpt>
        <trkpt lat="28.7330857" lon="105.5739045"><ele>613.3</ele><time>2026-03-14T19:34:55.000Z</time></trkpt>
        <trkpt lat="28.7329988" lon="105.5739866"><ele>614.02</ele><time>2026-03-14T19:35:01.000Z</time></trkpt>
        <trkpt lat="28.7329178" lon="105.5741029"><ele>613.52</ele><time>2026-03-14T19:35:09.000Z</time></trkpt>
        <trkpt lat="28.7328163" lon="105.5741988"><ele>611.89</ele><time>2026-03-14T19:35:15.000Z</time></trkpt>
        <trkpt lat="28.7327164" lon="105.5741918"><ele>610.24</ele><time>2026-03-14T19:35:21.000Z</time></trkpt>
        <trkpt lat="28.7326146" lon="105.5741432"><ele>607.83</ele><time>2026-03-14T19:35:29.000Z</time></trkpt>
        <trkpt lat="28.7325188" lon="105.5740989"><ele>605.89</ele><time>2026-03-14T19:35:33.000Z</time></trkpt>
        <trkpt lat="28.7323996" lon="105.5740523"><ele>604.42</ele><time>2026-03-14T19:35:37.000Z</time></trkpt>
        <trkpt lat="28.7323014" lon="105.5739883"><ele>603.22</ele><time>2026-03-14T19:35:43.000Z</time></trkpt>
        <trkpt lat="28.7321966" lon="105.5739118"><ele>601.68</ele><time>2026-03-14T19:35:53.000Z</time></trkpt>
        <trkpt lat="28.732089" lon="105.573832"><ele>599.98</ele><time>2026-03-14T19:36:05.000Z</time></trkpt>
        <trkpt lat="28.732089" lon="105.573832"><ele>599.98</ele><time>2026-03-14T19:36:12.000Z</time></trkpt>
      </trkseg>
      <trkseg>
        <trkpt lat="28.7320081" lon="105.573776"><ele>597.91</ele><time>2026-03-14T19:37:37.000Z</time></trkpt>
        <trkpt lat="28.7320081" lon="105.573776"><ele>597.91</ele><time>2026-03-14T19:37:41.000Z</time></trkpt>
        <trkpt lat="28.7319334" lon="105.5737053"><ele>590.87</ele><time>2026-03-14T19:37:47.000Z</time></trkpt>
        <trkpt lat="28.7318646" lon="105.5736167"><ele>589.2</ele><time>2026-03-14T19:37:55.000Z</time></trkpt>
        <trkpt lat="28.7318064" lon="105.5735257"><ele>587.24</ele><time>2026-03-14T19:38:03.000Z</time></trkpt>
        <trkpt lat="28.7317312" lon="105.5734567"><ele>586.65</ele><time>2026-03-14T19:38:09.000Z</time></trkpt>
        <trkpt lat="28.7316328" lon="105.5734039"><ele>586.81</ele><time>2026-03-14T19:38:17.000Z</time></trkpt>
        <trkpt lat="28.7315251" lon="105.5733548"><ele>586.89</ele><time>2026-03-14T19:38:25.000Z</time></trkpt>
        <trkpt lat="28.73142" lon="105.5733155"><ele>587.27</ele><time>2026-03-14T19:38:33.000Z</time></trkpt>
        <trkpt lat="28.7313231" lon="105.5732995"><ele>588.06</ele><time>2026-03-14T19:38:39.000Z</time></trkpt>
        <trkpt lat="28.7312525" lon="105.5732893"><ele>587.48</ele><time>2026-03-14T19:38:53.000Z</time></trkpt>
        <trkpt lat="28.731166" lon="105.5733209"><ele>584.64</ele><time>2026-03-14T19:39:17.000Z</time></trkpt>
        <trkpt lat="28.7311024" lon="105.5734048"><ele>582.34</ele><time>2026-03-14T19:39:41.000Z</time></trkpt>
        <trkpt lat="28.7310361" lon="105.5734876"><ele>580.75</ele><time>2026-03-14T19:40:17.000Z</time></trkpt>
        <trkpt lat="28.7309503" lon="105.5735259"><ele>579.28</ele><time>2026-03-14T19:40:29.000Z</time></trkpt>
        <trkpt lat="28.7308401" lon="105.5735008"><ele>577.5</ele><time>2026-03-14T19:40:39.000Z</time></trkpt>
        <trkpt lat="28.7307555" lon="105.5734712"><ele>575.53</ele><time>2026-03-14T19:40:43.000Z</time></trkpt>
        <trkpt lat="28.7306778" lon="105.5733991"><ele>575.12</ele><time>2026-03-14T19:40:51.000Z</time></trkpt>
        <trkpt lat="28.7306067" lon="105.5733062"><ele>574.7</ele><time>2026-03-14T19:41:03.000Z</time></trkpt>
        <trkpt lat="28.7305957" lon="105.5732581"><ele>573.55</ele><time>2026-03-14T19:41:13.000Z</time></trkpt>
        <trkpt lat="28.7305535" lon="105.5731874"><ele>570.47</ele><time>2026-03-14T19:41:35.000Z</time></trkpt>
        <trkpt lat="28.7305998" lon="105.5730921"><ele>568.98</ele><time>2026-03-14T19:42:44.000Z</time></trkpt>
        <trkpt lat="28.730571" lon="105.5729764"><ele>567.45</ele><time>2026-03-14T19:42:52.000Z</time></trkpt>
        <trkpt lat="28.7305111" lon="105.5728718"><ele>564.87</ele><time>2026-03-14T19:43:02.000Z</time></trkpt>
        <trkpt lat="28.7304645" lon="105.5727764"><ele>561.22</ele><time>2026-03-14T19:43:10.000Z</time></trkpt>
        <trkpt lat="28.7304342" lon="105.5726666"><ele>558.22</ele><time>2026-03-14T19:43:18.000Z</time></trkpt>
        <trkpt lat="28.730454" lon="105.572564"><ele>554.73</ele><time>2026-03-14T19:43:27.000Z</time></trkpt>
        <trkpt lat="28.730557" lon="105.5725163"><ele>552.02</ele><time>2026-03-14T19:43:34.000Z</time></trkpt>
        <trkpt lat="28.7306536" lon="105.5725022"><ele>549.61</ele><time>2026-03-14T19:43:40.000Z</time></trkpt>
        <trkpt lat="28.7307625" lon="105.5724971"><ele>549.83</ele><time>2026-03-14T19:43:50.000Z</time></trkpt>
        <trkpt lat="28.7308559" lon="105.5724693"><ele>551.33</ele><time>2026-03-14T19:43:58.000Z</time></trkpt>
        <trkpt lat="28.7309291" lon="105.5723962"><ele>551.87</ele><time>2026-03-14T19:44:06.000Z</time></trkpt>
        <trkpt lat="28.7310185" lon="105.5723264"><ele>552.18</ele><time>2026-03-14T19:44:14.000Z</time></trkpt>
        <trkpt lat="28.7311175" lon="105.5722841"><ele>552.46</ele><time>2026-03-14T19:44:22.000Z</time></trkpt>
        <trkpt lat="28.731211" lon="105.5722954"><ele>553.17</ele><time>2026-03-14T19:44:30.000Z</time></trkpt>
        <trkpt lat="28.7312604" lon="105.5723165"><ele>553.46</ele><time>2026-03-14T19:44:34.000Z</time></trkpt>
        <trkpt lat="28.7313209" lon="105.5723811"><ele>553.29</ele><time>2026-03-14T19:44:54.000Z</time></trkpt>
        <trkpt lat="28.7313919" lon="105.5724464"><ele>550.38</ele><time>2026-03-14T19:45:26.000Z</time></trkpt>
        <trkpt lat="28.7314728" lon="105.5725254"><ele>548.6</ele><time>2026-03-14T19:45:34.000Z</time></trkpt>
        <trkpt lat="28.7315466" lon="105.5726181"><ele>546.69</ele><time>2026-03-14T19:45:40.000Z</time></trkpt>
        <trkpt lat="28.7316223" lon="105.5726993"><ele>545.23</ele><time>2026-03-14T19:45:48.000Z</time></trkpt>
        <trkpt lat="28.7316998" lon="105.5726738"><ele>544.34</ele><time>2026-03-14T19:46:00.000Z</time></trkpt>
        <trkpt lat="28.7317076" lon="105.5725758"><ele>544.35</ele><time>2026-03-14T19:46:14.000Z</time></trkpt>
        <trkpt lat="28.7317083" lon="105.5724564"><ele>544.26</ele><time>2026-03-14T19:46:24.000Z</time></trkpt>
        <trkpt lat="28.7317313" lon="105.5723319"><ele>544.5</ele><time>2026-03-14T19:46:40.000Z</time></trkpt>
        <trkpt lat="28.7318137" lon="105.5722724"><ele>544.33</ele><time>2026-03-14T19:46:52.000Z</time></trkpt>
        <trkpt lat="28.731911" lon="105.5722757"><ele>544.55</ele><time>2026-03-14T19:47:02.000Z</time></trkpt>
        <trkpt lat="28.7320073" lon="105.572305"><ele>545.19</ele><time>2026-03-14T19:47:08.000Z</time></trkpt>
        <trkpt lat="28.7320698" lon="105.5723236"><ele>551.7</ele><time>2026-03-14T19:47:12.000Z</time></trkpt>
        <trkpt lat="28.7321495" lon="105.5723168"><ele>555.42</ele><time>2026-03-14T19:47:24.000Z</time></trkpt>
        <trkpt lat="28.7322321" lon="105.5723473"><ele>552.09</ele><time>2026-03-14T19:47:32.000Z</time></trkpt>
        <trkpt lat="28.7323553" lon="105.5723744"><ele>548.65</ele><time>2026-03-14T19:47:36.000Z</time></trkpt>
        <trkpt lat="28.7324423" lon="105.5724451"><ele>551.74</ele><time>2026-03-14T19:47:46.000Z</time></trkpt>
        <trkpt lat="28.7325128" lon="105.5724983"><ele>551.2</ele><time>2026-03-14T19:47:57.000Z</time></trkpt>
        <trkpt lat="28.7325917" lon="105.5724648"><ele>549.92</ele><time>2026-03-14T19:48:42.000Z</time></trkpt>
        <trkpt lat="28.7326253" lon="105.5723648"><ele>549.84</ele><time>2026-03-14T19:48:52.000Z</time></trkpt>
        <trkpt lat="28.732607" lon="105.572246"><ele>550.3</ele><time>2026-03-14T19:49:00.000Z</time></trkpt>
        <trkpt lat="28.7325874" lon="105.5721305"><ele>550.53</ele><time>2026-03-14T19:49:09.000Z</time></trkpt>
        <trkpt lat="28.7326288" lon="105.5720346"><ele>551.01</ele><time>2026-03-14T19:49:22.000Z</time></trkpt>
        <trkpt lat="28.7327044" lon="105.5719502"><ele>551.11</ele><time>2026-03-14T19:49:34.000Z</time></trkpt>
        <trkpt lat="28.7327813" lon="105.5718766"><ele>551.4</ele><time>2026-03-14T19:49:44.000Z</time></trkpt>
        <trkpt lat="28.7328473" lon="105.5718009"><ele>552.15</ele><time>2026-03-14T19:49:54.000Z</time></trkpt>
        <trkpt lat="28.7329367" lon="105.5717702"><ele>553.1</ele><time>2026-03-14T19:50:54.000Z</time></trkpt>
        <trkpt lat="28.7330333" lon="105.571737"><ele>553.52</ele><time>2026-03-14T19:51:18.000Z</time></trkpt>
        <trkpt lat="28.7330814" lon="105.571643"><ele>553.95</ele><time>2026-03-14T19:51:38.000Z</time></trkpt>
        <trkpt lat="28.7331129" lon="105.5715315"><ele>555.88</ele><time>2026-03-14T19:51:48.000Z</time></trkpt>
        <trkpt lat="28.7331461" lon="105.5714274"><ele>557.68</ele><time>2026-03-14T19:51:56.000Z</time></trkpt>
        <trkpt lat="28.7331888" lon="105.5713144"><ele>559.37</ele><time>2026-03-14T19:52:06.000Z</time></trkpt>
        <trkpt lat="28.7332643" lon="105.5712344"><ele>560.58</ele><time>2026-03-14T19:52:16.000Z</time></trkpt>
        <trkpt lat="28.7333391" lon="105.5711508"><ele>561.12</ele><time>2026-03-14T19:52:26.000Z</time></trkpt>
        <trkpt lat="28.7333745" lon="105.5711267"><ele>563.58</ele><time>2026-03-14T19:52:28.000Z</time></trkpt>
        <trkpt lat="28.7334346" lon="105.5710627"><ele>564.76</ele><time>2026-03-14T19:52:40.000Z</time></trkpt>
        <trkpt lat="28.733523" lon="105.5710292"><ele>563.69</ele><time>2026-03-14T19:52:50.000Z</time></trkpt>
        <trkpt lat="28.7336167" lon="105.5710412"><ele>562.66</ele><time>2026-03-14T19:52:58.000Z</time></trkpt>
        <trkpt lat="28.7336741" lon="105.5711273"><ele>561.95</ele><time>2026-03-14T19:53:06.000Z</time></trkpt>
        <trkpt lat="28.733734" lon="105.5712216"><ele>561.23</ele><time>2026-03-14T19:53:30.000Z</time></trkpt>
        <trkpt lat="28.7337936" lon="105.5713297"><ele>560.09</ele><time>2026-03-14T19:53:40.000Z</time></trkpt>
        <trkpt lat="28.7338614" lon="105.5714283"><ele>558.67</ele><time>2026-03-14T19:53:48.000Z</time></trkpt>
        <trkpt lat="28.7339515" lon="105.5715052"><ele>557.48</ele><time>2026-03-14T19:54:00.000Z</time></trkpt>
        <trkpt lat="28.7339885" lon="105.5715347"><ele>559.09</ele><time>2026-03-14T19:54:02.000Z</time></trkpt>
        <trkpt lat="28.7340587" lon="105.5715861"><ele>557.76</ele><time>2026-03-14T19:54:12.000Z</time></trkpt>
        <trkpt lat="28.7341561" lon="105.571621"><ele>557.92</ele><time>2026-03-14T19:54:22.000Z</time></trkpt>
        <trkpt lat="28.7342378" lon="105.57169"><ele>558.64</ele><time>2026-03-14T19:54:36.000Z</time></trkpt>
        <trkpt lat="28.7343204" lon="105.5717472"><ele>559.43</ele><time>2026-03-14T19:54:44.000Z</time></trkpt>
        <trkpt lat="28.7343929" lon="105.5718211"><ele>560.13</ele><time>2026-03-14T19:55:00.000Z</time></trkpt>
        <trkpt lat="28.734475" lon="105.5718844"><ele>560.52</ele><time>2026-03-14T19:55:10.000Z</time></trkpt>
        <trkpt lat="28.7345485" lon="105.5719624"><ele>560.6</ele><time>2026-03-14T19:55:26.000Z</time></trkpt>
        <trkpt lat="28.7346235" lon="105.5720251"><ele>560.65</ele><time>2026-03-14T19:55:38.000Z</time></trkpt>
        <trkpt lat="28.7347106" lon="105.5720733"><ele>560.69</ele><time>2026-03-14T19:56:42.000Z</time></trkpt>
        <trkpt lat="28.7348274" lon="105.5720762"><ele>561.28</ele><time>2026-03-14T19:56:56.000Z</time></trkpt>
        <trkpt lat="28.7349204" lon="105.5721048"><ele>561.38</ele><time>2026-03-14T19:57:06.000Z</time></trkpt>
        <trkpt lat="28.7350025" lon="105.5721486"><ele>561.58</ele><time>2026-03-14T19:57:12.000Z</time></trkpt>
        <trkpt lat="28.7350899" lon="105.5721913"><ele>561.87</ele><time>2026-03-14T19:57:26.000Z</time></trkpt>
        <trkpt lat="28.7351848" lon="105.5722132"><ele>561.8</ele><time>2026-03-14T19:57:34.000Z</time></trkpt>
        <trkpt lat="28.73528" lon="105.5722454"><ele>561.94</ele><time>2026-03-14T19:57:46.000Z</time></trkpt>
        <trkpt lat="28.7353656" lon="105.5722941"><ele>562.53</ele><time>2026-03-14T19:57:58.000Z</time></trkpt>
        <trkpt lat="28.735464" lon="105.5723202"><ele>563</ele><time>2026-03-14T19:58:06.000Z</time></trkpt>
        <trkpt lat="28.7355598" lon="105.5723094"><ele>563.52</ele><time>2026-03-14T19:58:20.000Z</time></trkpt>
        <trkpt lat="28.7356476" lon="105.5722419"><ele>563.98</ele><time>2026-03-14T19:58:28.000Z</time></trkpt>
        <trkpt lat="28.735743" lon="105.5722209"><ele>564.6</ele><time>2026-03-14T19:58:36.000Z</time></trkpt>
        <trkpt lat="28.7358352" lon="105.5721961"><ele>565.3</ele><time>2026-03-14T19:58:44.000Z</time></trkpt>
        <trkpt lat="28.7359302" lon="105.5721826"><ele>566.54</ele><time>2026-03-14T19:58:52.000Z</time></trkpt>
        <trkpt lat="28.735974" lon="105.5721878"><ele>567.41</ele><time>2026-03-14T19:58:58.000Z</time></trkpt>
        <trkpt lat="28.7360654" lon="105.5722106"><ele>567.89</ele><time>2026-03-14T19:59:08.000Z</time></trkpt>
        <trkpt lat="28.7361397" lon="105.5722584"><ele>572.97</ele><time>2026-03-14T19:59:14.000Z</time></trkpt>
        <trkpt lat="28.7362242" lon="105.5722935"><ele>570.86</ele><time>2026-03-14T19:59:24.000Z</time></trkpt>
        <trkpt lat="28.7363286" lon="105.5723459"><ele>569.79</ele><time>2026-03-14T19:59:34.000Z</time></trkpt>
        <trkpt lat="28.7364292" lon="105.5723999"><ele>569.41</ele><time>2026-03-14T19:59:42.000Z</time></trkpt>
        <trkpt lat="28.7365237" lon="105.5724412"><ele>569.37</ele><time>2026-03-14T19:59:48.000Z</time></trkpt>
        <trkpt lat="28.7366191" lon="105.5724593"><ele>569.66</ele><time>2026-03-14T19:59:56.000Z</time></trkpt>
        <trkpt lat="28.7367152" lon="105.5724784"><ele>570.54</ele><time>2026-03-14T20:00:06.000Z</time></trkpt>
        <trkpt lat="28.7368082" lon="105.5724988"><ele>572.62</ele><time>2026-03-14T20:00:16.000Z</time></trkpt>
        <trkpt lat="28.7369104" lon="105.5724851"><ele>574.38</ele><time>2026-03-14T20:00:30.000Z</time></trkpt>
        <trkpt lat="28.7370142" lon="105.5724801"><ele>579.82</ele><time>2026-03-14T20:00:48.000Z</time></trkpt>
        <trkpt lat="28.7371054" lon="105.572531"><ele>581.1</ele><time>2026-03-14T20:01:00.000Z</time></trkpt>
        <trkpt lat="28.7371964" lon="105.5725836"><ele>581.74</ele><time>2026-03-14T20:01:12.000Z</time></trkpt>
        <trkpt lat="28.7372679" lon="105.5725455"><ele>582.09</ele><time>2026-03-14T20:01:28.000Z</time></trkpt>
        <trkpt lat="28.7373156" lon="105.5726012"><ele>583.6</ele><time>2026-03-14T20:01:48.000Z</time></trkpt>
        <trkpt lat="28.7374126" lon="105.5725829"><ele>585.87</ele><time>2026-03-14T20:03:30.000Z</time></trkpt>
        <trkpt lat="28.7375104" lon="105.5725346"><ele>591.21</ele><time>2026-03-14T20:03:38.000Z</time></trkpt>
        <trkpt lat="28.7376071" lon="105.5725008"><ele>594.53</ele><time>2026-03-14T20:03:48.000Z</time></trkpt>
        <trkpt lat="28.7377031" lon="105.5724845"><ele>596.94</ele><time>2026-03-14T20:04:06.000Z</time></trkpt>
        <trkpt lat="28.7378014" lon="105.5724664"><ele>599.66</ele><time>2026-03-14T20:04:24.000Z</time></trkpt>
        <trkpt lat="28.7379081" lon="105.5724664"><ele>602.41</ele><time>2026-03-14T20:04:34.000Z</time></trkpt>
        <trkpt lat="28.7380161" lon="105.5724577"><ele>604.2</ele><time>2026-03-14T20:04:42.000Z</time></trkpt>
        <trkpt lat="28.7381013" lon="105.5724023"><ele>605.83</ele><time>2026-03-14T20:04:52.000Z</time></trkpt>
        <trkpt lat="28.7381296" lon="105.5723069"><ele>607.51</ele><time>2026-03-14T20:05:02.000Z</time></trkpt>
        <trkpt lat="28.738158" lon="105.5722037"><ele>609.76</ele><time>2026-03-14T20:05:18.000Z</time></trkpt>
        <trkpt lat="28.7382206" lon="105.572121"><ele>612.24</ele><time>2026-03-14T20:05:30.000Z</time></trkpt>
        <trkpt lat="28.7382978" lon="105.5720596"><ele>614.84</ele><time>2026-03-14T20:05:40.000Z</time></trkpt>
        <trkpt lat="28.7383798" lon="105.5719933"><ele>617.06</ele><time>2026-03-14T20:05:50.000Z</time></trkpt>
        <trkpt lat="28.7384376" lon="105.5719053"><ele>618.82</ele><time>2026-03-14T20:06:08.000Z</time></trkpt>
        <trkpt lat="28.738495" lon="105.5718189"><ele>620.7</ele><time>2026-03-14T20:06:16.000Z</time></trkpt>
        <trkpt lat="28.7385757" lon="105.5717535"><ele>622.13</ele><time>2026-03-14T20:06:28.000Z</time></trkpt>
        <trkpt lat="28.7386602" lon="105.5716824"><ele>623.63</ele><time>2026-03-14T20:06:38.000Z</time></trkpt>
        <trkpt lat="28.7387638" lon="105.5716163"><ele>627.49</ele><time>2026-03-14T20:06:52.000Z</time></trkpt>
        <trkpt lat="28.7388485" lon="105.5715267"><ele>628.38</ele><time>2026-03-14T20:07:00.000Z</time></trkpt>
        <trkpt lat="28.7389075" lon="105.5714307"><ele>629.33</ele><time>2026-03-14T20:07:04.000Z</time></trkpt>
        <trkpt lat="28.7389933" lon="105.5713551"><ele>628.58</ele><time>2026-03-14T20:07:14.000Z</time></trkpt>
        <trkpt lat="28.7390233" lon="105.5713359"><ele>630.01</ele><time>2026-03-14T20:07:16.000Z</time></trkpt>
        <trkpt lat="28.7391" lon="105.5713205"><ele>630.68</ele><time>2026-03-14T20:07:26.000Z</time></trkpt>
        <trkpt lat="28.7391722" lon="105.5712593"><ele>631.33</ele><time>2026-03-14T20:07:34.000Z</time></trkpt>
        <trkpt lat="28.7392209" lon="105.5711715"><ele>631.93</ele><time>2026-03-14T20:07:42.000Z</time></trkpt>
        <trkpt lat="28.7392827" lon="105.5710938"><ele>632.5</ele><time>2026-03-14T20:07:50.000Z</time></trkpt>
        <trkpt lat="28.7393021" lon="105.5710524"><ele>632.22</ele><time>2026-03-14T20:07:52.000Z</time></trkpt>
        <trkpt lat="28.739334" lon="105.5709739"><ele>632.26</ele><time>2026-03-14T20:08:10.000Z</time></trkpt>
        <trkpt lat="28.7393707" lon="105.5708727"><ele>631.78</ele><time>2026-03-14T20:08:20.000Z</time></trkpt>
        <trkpt lat="28.7394143" lon="105.570756"><ele>631.54</ele><time>2026-03-14T20:08:28.000Z</time></trkpt>
        <trkpt lat="28.7394605" lon="105.5706526"><ele>631.3</ele><time>2026-03-14T20:08:36.000Z</time></trkpt>
        <trkpt lat="28.7395407" lon="105.5706101"><ele>631.12</ele><time>2026-03-14T20:08:50.000Z</time></trkpt>
        <trkpt lat="28.739604" lon="105.570541"><ele>630.14</ele><time>2026-03-14T20:09:00.000Z</time></trkpt>
        <trkpt lat="28.7396478" lon="105.5704489"><ele>629.62</ele><time>2026-03-14T20:09:10.000Z</time></trkpt>
        <trkpt lat="28.7396478" lon="105.5704256"><ele>630.15</ele><time>2026-03-14T20:09:12.000Z</time></trkpt>
        <trkpt lat="28.7396342" lon="105.5703464"><ele>631</ele><time>2026-03-14T20:09:24.000Z</time></trkpt>
        <trkpt lat="28.7396357" lon="105.5702449"><ele>631.53</ele><time>2026-03-14T20:09:32.000Z</time></trkpt>
        <trkpt lat="28.7396356" lon="105.5701209"><ele>631.66</ele><time>2026-03-14T20:09:42.000Z</time></trkpt>
        <trkpt lat="28.739639" lon="105.5699985"><ele>631.66</ele><time>2026-03-14T20:09:51.000Z</time></trkpt>
        <trkpt lat="28.7396575" lon="105.5698869"><ele>633.1</ele><time>2026-03-14T20:09:56.000Z</time></trkpt>
        <trkpt lat="28.7396867" lon="105.5698259"><ele>633.94</ele><time>2026-03-14T20:10:00.000Z</time></trkpt>
        <trkpt lat="28.739706" lon="105.5697672"><ele>633.96</ele><time>2026-03-14T20:10:16.000Z</time></trkpt>
        <trkpt lat="28.7396689" lon="105.5696879"><ele>633.52</ele><time>2026-03-14T20:10:54.000Z</time></trkpt>
        <trkpt lat="28.7395945" lon="105.5696267"><ele>633.58</ele><time>2026-03-14T20:11:02.000Z</time></trkpt>
        <trkpt lat="28.7395051" lon="105.569568"><ele>633.64</ele><time>2026-03-14T20:11:12.000Z</time></trkpt>
        <trkpt lat="28.73945" lon="105.5694664"><ele>633.58</ele><time>2026-03-14T20:11:26.000Z</time></trkpt>
        <trkpt lat="28.7394298" lon="105.5693356"><ele>633.62</ele><time>2026-03-14T20:11:34.000Z</time></trkpt>
        <trkpt lat="28.739422" lon="105.5692162"><ele>633.44</ele><time>2026-03-14T20:11:40.000Z</time></trkpt>
        <trkpt lat="28.7394076" lon="105.569107"><ele>633.17</ele><time>2026-03-14T20:11:46.000Z</time></trkpt>
        <trkpt lat="28.7393807" lon="105.5689955"><ele>632.75</ele><time>2026-03-14T20:11:52.000Z</time></trkpt>
        <trkpt lat="28.7393665" lon="105.5688682"><ele>632.61</ele><time>2026-03-14T20:12:00.000Z</time></trkpt>
        <trkpt lat="28.7393602" lon="105.5687444"><ele>630.67</ele><time>2026-03-14T20:12:08.000Z</time></trkpt>
        <trkpt lat="28.7393446" lon="105.5686362"><ele>630.08</ele><time>2026-03-14T20:12:14.000Z</time></trkpt>
        <trkpt lat="28.7393492" lon="105.5685712"><ele>629.1</ele><time>2026-03-14T20:12:18.000Z</time></trkpt>
        <trkpt lat="28.7394113" lon="105.5684945"><ele>627.72</ele><time>2026-03-14T20:12:28.000Z</time></trkpt>
        <trkpt lat="28.7395043" lon="105.568426"><ele>625.95</ele><time>2026-03-14T20:12:36.000Z</time></trkpt>
        <trkpt lat="28.739593" lon="105.5683519"><ele>624.63</ele><time>2026-03-14T20:12:44.000Z</time></trkpt>
        <trkpt lat="28.7396607" lon="105.5682552"><ele>623.71</ele><time>2026-03-14T20:12:50.000Z</time></trkpt>
        <trkpt lat="28.7397168" lon="105.5681554"><ele>623.02</ele><time>2026-03-14T20:12:58.000Z</time></trkpt>
        <trkpt lat="28.7397963" lon="105.5681069"><ele>622.95</ele><time>2026-03-14T20:13:06.000Z</time></trkpt>
        <trkpt lat="28.739873" lon="105.5680584"><ele>623</ele><time>2026-03-14T20:13:16.000Z</time></trkpt>
        <trkpt lat="28.7399041" lon="105.5679645"><ele>622.88</ele><time>2026-03-14T20:13:26.000Z</time></trkpt>
        <trkpt lat="28.7399392" lon="105.5678439"><ele>622.88</ele><time>2026-03-14T20:13:32.000Z</time></trkpt>
        <trkpt lat="28.7399663" lon="105.5677168"><ele>622.82</ele><time>2026-03-14T20:13:40.000Z</time></trkpt>
        <trkpt lat="28.7400029" lon="105.5676125"><ele>622.76</ele><time>2026-03-14T20:13:48.000Z</time></trkpt>
        <trkpt lat="28.7400832" lon="105.5675469"><ele>622.71</ele><time>2026-03-14T20:13:56.000Z</time></trkpt>
        <trkpt lat="28.7401515" lon="105.5674713"><ele>622.45</ele><time>2026-03-14T20:14:26.000Z</time></trkpt>
        <trkpt lat="28.7401899" lon="105.5673805"><ele>623.19</ele><time>2026-03-14T20:14:46.000Z</time></trkpt>
        <trkpt lat="28.7402158" lon="105.567276"><ele>624.47</ele><time>2026-03-14T20:14:58.000Z</time></trkpt>
        <trkpt lat="28.7402378" lon="105.5671692"><ele>626.87</ele><time>2026-03-14T20:15:18.000Z</time></trkpt>
        <trkpt lat="28.7402709" lon="105.5670615"><ele>630.42</ele><time>2026-03-14T20:15:54.000Z</time></trkpt>
        <trkpt lat="28.7403079" lon="105.5669471"><ele>633.38</ele><time>2026-03-14T20:16:02.000Z</time></trkpt>
        <trkpt lat="28.7403665" lon="105.5668386"><ele>636</ele><time>2026-03-14T20:16:10.000Z</time></trkpt>
        <trkpt lat="28.7404434" lon="105.5667593"><ele>638.81</ele><time>2026-03-14T20:16:18.000Z</time></trkpt>
        <trkpt lat="28.7404434" lon="105.5667593"><ele>638.81</ele><time>2026-03-14T20:16:27.000Z</time></trkpt>
      </trkseg>
  </trk>
</gpx>